Time;durP1;ratioP1;P1;durP2;ratioP2;P2;SDS_P1;SDS_P2;PMS_P1;PMS_P2;Temp;Humidity;BMP_temperature;BMP_pressure;BME280_temperature;BME280_humidity;BME280_pressure;Samples;Min_cycle;Max_cycle;Signal;HPM_P1;HPM_P2
2022/09/25 00:00:21;;;;;;;12.87;11.97;;;;;;;;;;5061348;28;25015;-47
2022/09/25 00:02:46;;;;;;;13.80;12.90;;;;;;;;;;5051381;28;24631;-45
2022/09/25 00:05:12;;;;;;;12.15;11.25;;;;;;;;;;5062877;28;25031;-46
2022/09/25 00:07:37;;;;;;;12.60;11.70;;;;;;;;;;5059415;28;24534;-46
2022/09/25 00:10:03;;;;;;;14.25;13.15;;;;;;;;;;5057988;28;24519;-46
2022/09/25 00:12:28;;;;;;;12.38;11.52;;;;;;;;;;5061311;28;24422;-47
2022/09/25 00:14:54;;;;;;;12.47;11.57;;;;;;;;;;5059124;28;24812;-47
2022/09/25 00:17:19;;;;;;;11.47;10.63;;;;;;;;;;5060401;28;24487;-47
2022/09/25 00:19:50;;;;;;;12.03;11.13;;;;;;;;;;5057890;28;24411;-47
2022/09/25 00:22:19;;;;;;;10.50;9.80;;;;;;;;;;5054129;28;24415;-47
2022/09/25 00:24:44;;;;;;;13.40;12.40;;;;;;;;;;5057433;28;24442;-47
2022/09/25 00:27:10;;;;;;;12.20;11.30;;;;;;;;;;5056795;28;24465;-47
2022/09/25 00:29:35;;;;;;;11.50;10.70;;;;;;;;;;5054853;28;24430;-47
2022/09/25 00:32:01;;;;;;;12.00;11.20;;;;;;;;;;5051671;28;25007;-47
2022/09/25 00:34:26;;;;;;;13.30;12.30;;;;;;;;;;5061633;28;24419;-47
2022/09/25 00:36:51;;;;;;;12.32;11.43;;;;;;;;;;5052476;28;24414;-46
2022/09/25 00:39:16;;;;;;;13.93;12.93;;;;;;;;;;5061091;28;24429;-47
2022/09/25 00:41:42;;;;;;;12.50;11.60;;;;;;;;;;5053747;28;24522;-47
2022/09/25 00:44:25;;;;;;;11.70;10.90;;;;;;;;;;5057012;28;25139;-47
2022/09/25 00:46:51;;;;;;;11.90;11.10;;;;;;;;;;5059733;28;24991;-45
2022/09/25 00:49:18;;;;;;;14.80;13.70;;;;;;;;;;5060746;28;24438;-45
2022/09/25 00:51:45;;;;;;;13.10;12.20;;;;;;;;;;5065753;28;24449;-45
2022/09/25 00:54:16;;;;;;;12.45;11.55;;;;;;;;;;5056172;28;24423;-46
2022/09/25 00:56:42;;;;;;;12.55;11.65;;;;;;;;;;5062463;28;24524;-47
2022/09/25 00:59:10;;;;;;;14.00;13.00;;;;;;;;;;5058727;28;24657;-48
2022/09/25 01:01:35;;;;;;;12.70;11.70;;;;;;;;;;5063260;28;24963;-47
2022/09/25 01:04:00;;;;;;;13.20;12.30;;;;;;;;;;5055567;28;24434;-48
2022/09/25 01:06:26;;;;;;;12.70;11.80;;;;;;;;;;5059472;28;24426;-47
2022/09/25 01:08:51;;;;;;;11.63;10.83;;;;;;;;;;5054042;28;24426;-47
2022/09/25 01:11:16;;;;;;;12.00;11.20;;;;;;;;;;5054522;28;25066;-47
2022/09/25 01:13:41;;;;;;;12.27;11.40;;;;;;;;;;5061403;28;24431;-46
2022/09/25 01:16:26;;;;;;;12.60;11.70;;;;;;;;;;5052113;28;24450;-47
2022/09/25 01:19:11;;;;;;;13.07;12.18;;;;;;;;;;5052985;28;24442;-47
2022/09/25 01:21:43;;;;;;;12.40;11.50;;;;;;;;;;5027263;28;24484;-47
2022/09/25 01:24:14;;;;;;;12.10;11.20;;;;;;;;;;5056829;28;25059;-47
2022/09/25 01:27:05;;;;;;;11.60;10.70;;;;;;;;;;5055626;28;24902;-48
2022/09/25 01:29:35;;;;;;;12.20;11.40;;;;;;;;;;5046268;28;24473;-48
2022/09/25 01:32:03;;;;;;;11.55;10.75;;;;;;;;;;5059341;28;24414;-48
2022/09/25 01:34:35;;;;;;;11.70;10.90;;;;;;;;;;5057784;28;24430;-47
2022/09/25 01:37:18;;;;;;;11.52;10.63;;;;;;;;;;5053872;28;24458;-47
2022/09/25 01:39:53;;;;;;;11.45;10.65;;;;;;;;;;5051729;28;24421;-47
2022/09/25 01:42:20;;;;;;;11.75;10.95;;;;;;;;;;5063441;28;24465;-47
2022/09/25 01:44:51;;;;;;;12.70;11.70;;;;;;;;;;5067227;28;24833;-47
2022/09/25 01:47:21;;;;;;;11.80;11.00;;;;;;;;;;5066440;28;25210;-47
2022/09/25 01:49:49;;;;;;;11.45;10.65;;;;;;;;;;5056414;28;24430;-47
2022/09/25 01:52:17;;;;;;;11.43;10.52;;;;;;;;;;5062203;28;24434;-48
2022/09/25 01:54:50;;;;;;;10.82;10.02;;;;;;;;;;5061969;28;24426;-48
2022/09/25 01:57:15;;;;;;;11.30;10.50;;;;;;;;;;5061124;28;24484;-47
2022/09/25 01:59:43;;;;;;;11.60;10.70;;;;;;;;;;5063875;28;24427;-47
2022/09/25 02:02:12;;;;;;;10.82;10.13;;;;;;;;;;5057357;28;24427;-48
2022/09/25 02:04:38;;;;;;;11.05;10.25;;;;;;;;;;5065000;28;24457;-47
2022/09/25 02:07:05;;;;;;;11.90;11.10;;;;;;;;;;5060549;28;24430;-47
2022/09/25 02:09:37;;;;;;;10.50;9.80;;;;;;;;;;5062619;28;24435;-48
2022/09/25 02:12:08;;;;;;;11.00;10.20;;;;;;;;;;5060935;28;24894;-47
2022/09/25 02:14:35;;;;;;;10.97;10.17;;;;;;;;;;5061540;28;25071;-48
2022/09/25 02:17:03;;;;;;;10.57;9.88;;;;;;;;;;5064339;28;25188;-48
2022/09/25 02:22:18;;;;;;;10.68;9.98;;;;;;;;;;5052473;28;24846;-47
2022/09/25 02:24:49;;;;;;;10.00;9.30;;;;;;;;;;5051509;28;24423;-47
2022/09/25 02:27:14;;;;;;;10.50;9.80;;;;;;;;;;5063124;28;24521;-47
2022/09/25 02:29:41;;;;;;;11.70;10.80;;;;;;;;;;5052728;28;24513;-47
2022/09/25 02:32:08;;;;;;;11.60;10.80;;;;;;;;;;5057780;28;25060;-47
2022/09/25 02:34:34;;;;;;;11.30;10.55;;;;;;;;;;5062775;28;24481;-47
2022/09/25 02:36:59;;;;;;;11.70;10.90;;;;;;;;;;5058341;28;24427;-48
2022/09/25 02:39:27;;;;;;;10.77;9.97;;;;;;;;;;5051761;28;24434;-47
2022/09/25 02:41:55;;;;;;;10.18;9.48;;;;;;;;;;5054852;28;25045;-47
2022/09/25 02:44:25;;;;;;;10.90;10.20;;;;;;;;;;5063104;28;24439;-48
2022/09/25 02:47:03;;;;;;;10.88;10.18;;;;;;;;;;5059590;28;24475;-48
2022/09/25 02:49:33;;;;;;;11.23;10.43;;;;;;;;;;5061618;28;24435;-48
2022/09/25 02:52:12;;;;;;;11.55;10.65;;;;;;;;;;5064279;28;24429;-46
2022/09/25 02:54:52;;;;;;;10.50;9.80;;;;;;;;;;5060649;28;24473;-47
2022/09/25 02:57:20;;;;;;;10.70;9.90;;;;;;;;;;5059553;28;24423;-47
2022/09/25 02:59:51;;;;;;;11.02;10.13;;;;;;;;;;5064367;28;24719;-48
2022/09/25 03:02:16;;;;;;;10.85;10.05;;;;;;;;;;5065440;28;24511;-48
2022/09/25 03:04:43;;;;;;;10.40;9.70;;;;;;;;;;5059481;28;25058;-48
2022/09/25 03:07:08;;;;;;;11.02;10.32;;;;;;;;;;5050736;28;25216;-47
2022/09/25 03:09:35;;;;;;;9.23;8.63;;;;;;;;;;5055437;28;24430;-47
2022/09/25 03:12:03;;;;;;;10.70;9.90;;;;;;;;;;5056805;28;24786;-47
2022/09/25 03:14:28;;;;;;;10.45;9.75;;;;;;;;;;5062308;28;24805;-46
2022/09/25 03:16:57;;;;;;;10.60;9.80;;;;;;;;;;5060561;28;24949;-47
2022/09/25 03:19:25;;;;;;;10.27;9.57;;;;;;;;;;5058553;28;24482;-47
2022/09/25 03:21:50;;;;;;;11.27;10.48;;;;;;;;;;5048157;28;24877;-47
2022/09/25 03:24:15;;;;;;;10.20;9.50;;;;;;;;;;5058669;28;24498;-47
2022/09/25 03:26:41;;;;;;;11.27;10.47;;;;;;;;;;5055785;28;24422;-47
2022/09/25 03:29:06;;;;;;;10.60;9.80;;;;;;;;;;5056861;28;24508;-48
2022/09/25 03:31:31;;;;;;;10.97;10.17;;;;;;;;;;5062074;28;24438;-47
2022/09/25 03:33:57;;;;;;;10.67;9.87;;;;;;;;;;5056450;28;25199;-47
2022/09/25 03:36:23;;;;;;;9.80;9.20;;;;;;;;;;5063021;28;24449;-48
2022/09/25 03:38:49;;;;;;;10.30;9.60;;;;;;;;;;5063065;28;24435;-47
2022/09/25 03:41:18;;;;;;;10.85;10.15;;;;;;;;;;5061529;28;24486;-47
2022/09/25 03:43:44;;;;;;;10.15;9.35;;;;;;;;;;5055680;28;24488;-46
2022/09/25 03:46:10;;;;;;;9.93;9.33;;;;;;;;;;5059329;28;24430;-47
2022/09/25 03:48:36;;;;;;;10.10;9.40;;;;;;;;;;5059511;28;24472;-47
2022/09/25 03:51:01;;;;;;;9.80;9.20;;;;;;;;;;5063361;28;24512;-47
2022/09/25 03:53:30;;;;;;;10.53;9.83;;;;;;;;;;5059888;28;24510;-47
2022/09/25 03:55:55;;;;;;;10.30;9.60;;;;;;;;;;5061921;28;24508;-47
2022/09/25 03:58:20;;;;;;;10.83;10.03;;;;;;;;;;5055921;28;24880;-47
2022/09/25 04:00:46;;;;;;;11.30;10.50;;;;;;;;;;5056522;28;24825;-47
2022/09/25 04:03:12;;;;;;;12.10;11.30;;;;;;;;;;5064710;28;24430;-47
2022/09/25 04:05:38;;;;;;;11.10;10.30;;;;;;;;;;5058152;28;24454;-47
2022/09/25 04:08:03;;;;;;;10.27;9.57;;;;;;;;;;5048041;28;24481;-47
2022/09/25 04:10:29;;;;;;;11.20;10.50;;;;;;;;;;5057388;28;24427;-48
2022/09/25 04:12:54;;;;;;;10.30;9.60;;;;;;;;;;5063928;28;24445;-47
2022/09/25 04:15:22;;;;;;;10.90;10.10;;;;;;;;;;5048641;28;24994;-48
2022/09/25 04:17:47;;;;;;;11.05;10.25;;;;;;;;;;5059281;28;24430;-48
2022/09/25 04:20:12;;;;;;;10.53;9.73;;;;;;;;;;5056316;28;24461;-47
2022/09/25 04:22:37;;;;;;;10.53;9.83;;;;;;;;;;5062012;28;24813;-47
2022/09/25 04:25:02;;;;;;;10.40;9.70;;;;;;;;;;5055889;28;24446;-48
2022/09/25 04:27:28;;;;;;;10.90;10.20;;;;;;;;;;5060779;28;24718;-47
2022/09/25 04:29:53;;;;;;;10.60;9.80;;;;;;;;;;5062241;28;24476;-46
2022/09/25 04:35:02;;;;;;;9.65;9.05;;;;;;;;;;5065707;28;25023;-47
2022/09/25 04:37:27;;;;;;;10.50;9.80;;;;;;;;;;5056587;28;24451;-47
2022/09/25 04:39:53;;;;;;;10.43;9.73;;;;;;;;;;5058300;28;24533;-47
2022/09/25 04:42:23;;;;;;;9.98;9.32;;;;;;;;;;5062123;28;24426;-47
2022/09/25 04:44:48;;;;;;;10.80;10.10;;;;;;;;;;5066170;28;24891;-47
2022/09/25 04:47:13;;;;;;;9.77;9.13;;;;;;;;;;5065976;28;24964;-47
2022/09/25 04:49:39;;;;;;;10.20;9.50;;;;;;;;;;5057318;28;25038;-47
2022/09/25 04:52:04;;;;;;;10.35;9.65;;;;;;;;;;5055928;28;25000;-47
2022/09/25 04:54:30;;;;;;;9.70;9.10;;;;;;;;;;5064588;28;24419;-48
2022/09/25 04:56:56;;;;;;;9.80;9.20;;;;;;;;;;5060808;28;24514;-47
2022/09/25 04:59:21;;;;;;;10.60;9.90;;;;;;;;;;5055484;28;24481;-47
2022/09/25 05:01:46;;;;;;;10.10;9.40;;;;;;;;;;5054155;28;25113;-47
2022/09/25 05:04:14;;;;;;;10.60;9.90;;;;;;;;;;5065452;28;24789;-47
2022/09/25 05:06:40;;;;;;;10.50;9.80;;;;;;;;;;5063362;28;25051;-47
2022/09/25 05:09:05;;;;;;;10.25;9.55;;;;;;;;;;5054827;28;24525;-46
2022/09/25 05:11:30;;;;;;;9.85;9.15;;;;;;;;;;5052526;28;25086;-47
2022/09/25 05:13:55;;;;;;;10.10;9.40;;;;;;;;;;5063136;28;24421;-48
2022/09/25 05:16:20;;;;;;;9.55;8.95;;;;;;;;;;5063748;28;24423;-47
2022/09/25 05:18:45;;;;;;;10.50;9.70;;;;;;;;;;5069509;28;24427;-47
2022/09/25 05:21:10;;;;;;;10.90;10.00;;;;;;;;;;5068091;28;24418;-47
2022/09/25 05:23:36;;;;;;;10.80;10.00;;;;;;;;;;5068485;28;24802;-47
2022/09/25 05:26:01;;;;;;;10.20;9.50;;;;;;;;;;5062801;28;24563;-47
2022/09/25 05:28:27;;;;;;;10.37;9.57;;;;;;;;;;5052316;28;24530;-48
2022/09/25 05:30:52;;;;;;;9.90;9.20;;;;;;;;;;5066885;28;24518;-47
2022/09/25 05:33:20;;;;;;;10.50;9.80;;;;;;;;;;5066288;28;24487;-47
2022/09/25 05:35:47;;;;;;;9.82;9.13;;;;;;;;;;5068091;28;24438;-47
2022/09/25 05:38:12;;;;;;;10.65;9.95;;;;;;;;;;5064992;28;24421;-47
2022/09/25 05:40:40;;;;;;;10.20;9.50;;;;;;;;;;5067003;28;24569;-47
2022/09/25 05:43:05;;;;;;;10.25;9.50;;;;;;;;;;5067466;28;24534;-47
2022/09/25 05:45:30;;;;;;;10.50;9.80;;;;;;;;;;5061872;28;24539;-47
2022/09/25 05:48:05;;;;;;;10.40;9.60;;;;;;;;;;5059642;28;24980;-47
2022/09/25 05:50:31;;;;;;;9.93;9.23;;;;;;;;;;5060434;28;24415;-47
2022/09/25 05:52:57;;;;;;;10.65;9.85;;;;;;;;;;5064671;28;24425;-47
2022/09/25 05:55:22;;;;;;;9.82;9.20;;;;;;;;;;5050725;28;24518;-47
2022/09/25 05:57:47;;;;;;;9.97;9.27;;;;;;;;;;5065183;28;25333;-48
2022/09/25 06:00:13;;;;;;;10.00;9.30;;;;;;;;;;5062485;28;24427;-47
2022/09/25 06:02:39;;;;;;;8.80;8.20;;;;;;;;;;5068368;28;24957;-48
2022/09/25 06:05:04;;;;;;;9.40;8.80;;;;;;;;;;5062696;28;24541;-48
2022/09/25 06:07:29;;;;;;;9.73;9.03;;;;;;;;;;5063148;28;24774;-46
2022/09/25 06:09:54;;;;;;;10.67;9.80;;;;;;;;;;5059745;28;24500;-48
2022/09/25 06:12:21;;;;;;;10.80;10.00;;;;;;;;;;5066166;28;24541;-47
2022/09/25 06:14:47;;;;;;;11.40;10.60;;;;;;;;;;5062497;28;24410;-47
2022/09/25 06:17:13;;;;;;;9.83;9.20;;;;;;;;;;5065451;28;24502;-45
2022/09/25 06:19:38;;;;;;;9.82;9.13;;;;;;;;;;5064456;28;24434;-47
2022/09/25 06:22:03;;;;;;;10.10;9.40;;;;;;;;;;5060814;28;24998;-47
2022/09/25 06:24:28;;;;;;;9.85;9.15;;;;;;;;;;5063414;28;24430;-47
2022/09/25 06:26:53;;;;;;;10.25;9.55;;;;;;;;;;5069037;28;24398;-47
2022/09/25 06:29:18;;;;;;;9.63;8.85;;;;;;;;;;5068919;28;25003;-47
2022/09/25 06:31:44;;;;;;;9.67;8.97;;;;;;;;;;5067747;28;24433;-46
2022/09/25 06:34:11;;;;;;;9.30;8.60;;;;;;;;;;5066979;28;24952;-48
2022/09/25 06:36:36;;;;;;;9.75;9.05;;;;;;;;;;5067913;28;24496;-47
2022/09/25 06:39:01;;;;;;;9.67;8.97;;;;;;;;;;5066928;28;24497;-47
2022/09/25 06:41:27;;;;;;;9.73;9.03;;;;;;;;;;5067515;28;24792;-47
2022/09/25 06:43:52;;;;;;;9.80;9.10;;;;;;;;;;5065555;28;25039;-47
2022/09/25 06:46:18;;;;;;;9.00;8.40;;;;;;;;;;5067666;28;24972;-46
2022/09/25 06:48:44;;;;;;;9.23;8.52;;;;;;;;;;5065912;28;24434;-47
2022/09/25 06:51:09;;;;;;;9.63;9.03;;;;;;;;;;5067286;28;24429;-46
2022/09/25 06:53:34;;;;;;;9.90;9.10;;;;;;;;;;5066693;28;24937;-47
2022/09/25 06:55:59;;;;;;;9.13;8.43;;;;;;;;;;5067347;28;24429;-47
2022/09/25 06:58:25;;;;;;;8.50;7.90;;;;;;;;;;5066363;28;24476;-47
2022/09/25 07:00:52;;;;;;;8.80;8.20;;;;;;;;;;5067404;28;24426;-46
2022/09/25 07:06:02;;;;;;;9.80;9.10;;;;;;;;;;5068113;28;24505;-47
2022/09/25 07:08:27;;;;;;;9.82;9.13;;;;;;;;;;5064882;28;24434;-46
2022/09/25 07:10:53;;;;;;;8.70;8.10;;;;;;;;;;5067798;28;24449;-47
2022/09/25 07:13:23;;;;;;;10.70;9.90;;;;;;;;;;5064351;28;24421;-47
2022/09/25 07:16:24;;;;;;;9.20;8.60;;;;;;;;;;5048402;28;24450;-47
2022/09/25 07:18:52;;;;;;;9.10;8.50;;;;;;;;;;4986208;28;24583;-47
2022/09/25 07:21:18;;;;;;;8.60;8.00;;;;;;;;;;5035826;28;24416;-47
2022/09/25 07:23:43;;;;;;;8.93;8.30;;;;;;;;;;5047559;28;24390;-47
2022/09/25 07:26:12;;;;;;;8.80;8.20;;;;;;;;;;5047601;28;24403;-47
2022/09/25 07:28:38;;;;;;;9.32;8.55;;;;;;;;;;5047757;28;25023;-46
2022/09/25 07:31:13;;;;;;;9.07;8.47;;;;;;;;;;5047642;28;24473;-47
2022/09/25 07:33:38;;;;;;;9.93;9.20;;;;;;;;;;5047619;28;24495;-46
2022/09/25 07:36:04;;;;;;;8.90;8.20;;;;;;;;;;5047463;28;24838;-45
2022/09/25 07:38:29;;;;;;;9.30;8.70;;;;;;;;;;5047618;28;24945;-46
2022/09/25 07:40:54;;;;;;;10.20;9.40;;;;;;;;;;5047280;28;24485;-47
2022/09/25 07:43:20;;;;;;;9.60;8.90;;;;;;;;;;5047613;28;24793;-47
2022/09/25 07:45:52;;;;;;;8.70;8.10;;;;;;;;;;5045619;28;24398;-47
2022/09/25 07:48:17;;;;;;;9.00;8.40;;;;;;;;;;5047259;28;24501;-47
2022/09/25 07:50:44;;;;;;;9.70;9.00;;;;;;;;;;5047309;28;24474;-47
2022/09/25 07:53:09;;;;;;;10.00;9.30;;;;;;;;;;5047286;28;24414;-47
2022/09/25 07:55:34;;;;;;;9.00;8.40;;;;;;;;;;5047415;28;24427;-47
2022/09/25 07:57:59;;;;;;;10.40;9.60;;;;;;;;;;5066641;28;25184;-47
2022/09/25 08:00:24;;;;;;;11.50;10.70;;;;;;;;;;5067218;28;25039;-47
2022/09/25 08:02:57;;;;;;;11.00;10.20;;;;;;;;;;5067284;28;24394;-47
2022/09/25 08:05:22;;;;;;;9.95;9.25;;;;;;;;;;5066548;28;24486;-47
2022/09/25 08:07:47;;;;;;;11.35;10.38;;;;;;;;;;5067287;28;24922;-47
2022/09/25 08:10:12;;;;;;;9.48;8.77;;;;;;;;;;5066947;28;24395;-47
2022/09/25 08:12:39;;;;;;;12.43;11.52;;;;;;;;;;5067084;28;24444;-48
2022/09/25 08:15:05;;;;;;;9.65;8.88;;;;;;;;;;5066723;28;24909;-47
2022/09/25 08:17:30;;;;;;;12.10;11.10;;;;;;;;;;5066950;28;24401;-46
2022/09/25 08:19:55;;;;;;;9.70;9.00;;;;;;;;;;5066992;28;24479;-47
2022/09/25 08:22:20;;;;;;;9.83;9.13;;;;;;;;;;5066607;28;24938;-47
2022/09/25 08:24:45;;;;;;;9.90;9.20;;;;;;;;;;5066925;28;24386;-47
2022/09/25 08:27:11;;;;;;;10.73;9.93;;;;;;;;;;5066941;28;24478;-47
2022/09/25 08:29:37;;;;;;;10.10;9.40;;;;;;;;;;5066619;28;24410;-47
2022/09/25 08:32:02;;;;;;;11.10;10.30;;;;;;;;;;5066480;28;24861;-46
2022/09/25 08:34:27;;;;;;;9.55;8.90;;;;;;;;;;5065871;28;25001;-47
2022/09/25 08:36:53;;;;;;;10.30;9.60;;;;;;;;;;5067056;28;25002;-46
2022/09/25 08:39:18;;;;;;;11.00;10.20;;;;;;;;;;5066439;28;24395;-46
2022/09/25 08:41:48;;;;;;;9.82;9.02;;;;;;;;;;5066376;28;24409;-48
2022/09/25 08:44:39;;;;;;;9.57;8.95;;;;;;;;;;5066338;28;24511;-47
2022/09/25 08:50:09;;;;;;;10.20;9.50;;;;;;;;;;5066213;28;24931;-47
2022/09/25 08:52:34;;;;;;;10.55;9.85;;;;;;;;;;5065456;28;24463;-47
2022/09/25 08:55:00;;;;;;;9.20;8.60;;;;;;;;;;5065783;28;24940;-47
2022/09/25 08:57:36;;;;;;;10.97;10.17;;;;;;;;;;5066257;28;24403;-48
2022/09/25 09:00:03;;;;;;;10.65;9.85;;;;;;;;;;5066312;28;24436;-48
2022/09/25 09:02:35;;;;;;;8.88;8.27;;;;;;;;;;5066031;28;24791;-48
2022/09/25 09:05:00;;;;;;;9.93;9.23;;;;;;;;;;5066196;28;24394;-48
2022/09/25 09:07:25;;;;;;;9.40;8.80;;;;;;;;;;5066153;28;24466;-48
2022/09/25 09:09:58;;;;;;;11.20;10.40;;;;;;;;;;5066427;28;24941;-48
2022/09/25 09:12:33;;;;;;;10.27;9.55;;;;;;;;;;5065687;28;24397;-47
2022/09/25 09:15:05;;;;;;;9.95;9.25;;;;;;;;;;5064700;28;25117;-47
2022/09/25 09:17:32;;;;;;;9.82;9.13;;;;;;;;;;5063584;28;24939;-47
2022/09/25 09:19:58;;;;;;;9.00;8.30;;;;;;;;;;5064250;28;24914;-47
2022/09/25 09:22:38;;;;;;;10.27;9.57;;;;;;;;;;5065195;28;24389;-47
2022/09/25 09:25:24;;;;;;;10.55;9.75;;;;;;;;;;5066211;28;24460;-46
2022/09/25 09:27:55;;;;;;;8.87;8.27;;;;;;;;;;5065489;28;24813;-47
2022/09/25 09:30:30;;;;;;;9.40;8.70;;;;;;;;;;5065872;28;24398;-48
2022/09/25 09:33:03;;;;;;;9.80;9.17;;;;;;;;;;5065906;28;24395;-47
2022/09/25 09:35:32;;;;;;;9.85;9.15;;;;;;;;;;5065914;28;24414;-47
2022/09/25 09:37:57;;;;;;;10.20;9.50;;;;;;;;;;5065961;28;24387;-47
2022/09/25 09:40:31;;;;;;;9.25;8.65;;;;;;;;;;5066088;28;24680;-47
2022/09/25 09:43:04;;;;;;;10.95;10.20;;;;;;;;;;5065638;28;25040;-48
2022/09/25 09:45:51;;;;;;;10.35;9.60;;;;;;;;;;5065776;28;24937;-47
2022/09/25 09:48:32;;;;;;;8.60;8.00;;;;;;;;;;5065739;28;24472;-47
2022/09/25 09:51:03;;;;;;;12.95;12.10;;;;;;;;;;5065875;28;24419;-47
2022/09/25 09:53:28;;;;;;;10.50;9.80;;;;;;;;;;5065742;28;24407;-47
2022/09/25 09:56:05;;;;;;;13.55;12.65;;;;;;;;;;5065065;28;24413;-47
2022/09/25 09:58:36;;;;;;;10.68;9.98;;;;;;;;;;5065840;28;25254;-47
2022/09/25 10:01:02;;;;;;;13.77;12.60;;;;;;;;;;5065834;28;25024;-47
2022/09/25 10:03:28;;;;;;;12.20;11.30;;;;;;;;;;5066853;28;24505;-47
2022/09/25 10:05:55;;;;;;;14.90;13.90;;;;;;;;;;5069478;28;24440;-47
2022/09/25 10:08:21;;;;;;;11.77;10.88;;;;;;;;;;5068952;28;24940;-47
2022/09/25 10:10:52;;;;;;;12.80;11.90;;;;;;;;;;5069357;28;25191;-47
2022/09/25 10:13:22;;;;;;;13.63;12.63;;;;;;;;;;5069089;28;24413;-48
2022/09/25 10:16:04;;;;;;;13.30;12.30;;;;;;;;;;5069289;28;24822;-47
2022/09/25 10:18:39;;;;;;;10.13;9.43;;;;;;;;;;5069008;28;24483;-47
2022/09/25 10:21:25;;;;;;;12.63;11.73;;;;;;;;;;5069476;28;24513;-46
2022/09/25 10:23:51;;;;;;;12.45;11.45;;;;;;;;;;5027778;28;24768;-47
2022/09/25 10:26:25;;;;;;;12.37;11.53;;;;;;;;;;5069120;28;24477;-47
2022/09/25 10:28:50;;;;;;;11.70;10.90;;;;;;;;;;5069129;28;24418;-46
2022/09/25 10:31:17;;;;;;;13.60;12.30;;;;;;;;;;5069306;28;24464;-47
2022/09/25 10:33:56;;;;;;;12.50;11.50;;;;;;;;;;5069057;28;24395;-47
2022/09/25 10:36:41;;;;;;;12.10;11.20;;;;;;;;;;5068876;28;24845;-47
2022/09/25 10:39:24;;;;;;;11.43;10.53;;;;;;;;;;5068837;28;24394;-47
2022/09/25 10:41:50;;;;;;;10.90;10.18;;;;;;;;;;5068955;28;24490;-48
2022/09/25 10:44:32;;;;;;;10.38;9.68;;;;;;;;;;5069030;28;24826;-47
2022/09/25 10:50:16;;;;;;;10.02;9.32;;;;;;;;;;5068907;28;24864;-47
2022/09/25 10:52:44;;;;;;;8.90;8.30;;;;;;;;;;5067715;28;24506;-47
2022/09/25 10:55:19;;;;;;;11.50;10.63;;;;;;;;;;5064868;28;24451;-47
2022/09/25 10:57:46;;;;;;;9.45;8.80;;;;;;;;;;5064204;28;24433;-46
2022/09/25 11:00:22;;;;;;;9.88;9.18;;;;;;;;;;5064244;28;24481;-47
2022/09/25 11:02:48;;;;;;;10.10;9.30;;;;;;;;;;5059202;28;24419;-47
2022/09/25 11:05:15;;;;;;;7.30;6.80;;;;;;;;;;5057915;28;24429;-46
2022/09/25 11:07:51;;;;;;;7.53;6.93;;;;;;;;;;5061718;28;25012;-47
2022/09/25 11:10:20;;;;;;;10.93;10.02;;;;;;;;;;5066053;28;24972;-47
2022/09/25 11:12:46;;;;;;;7.80;7.30;;;;;;;;;;5063660;28;24423;-46
2022/09/25 11:15:15;;;;;;;7.70;7.20;;;;;;;;;;5061965;28;24422;-46
2022/09/25 11:17:42;;;;;;;10.95;10.15;;;;;;;;;;5069135;28;24444;-48
2022/09/25 11:20:28;;;;;;;8.40;7.80;;;;;;;;;;5070925;28;24506;-48
2022/09/25 11:23:13;;;;;;;7.27;6.77;;;;;;;;;;5069688;28;24415;-46
2022/09/25 11:26:05;;;;;;;10.15;9.45;;;;;;;;;;5049496;28;24410;-48
2022/09/25 11:28:39;;;;;;;9.82;9.13;;;;;;;;;;5058634;28;24430;-48
2022/09/25 11:31:25;;;;;;;9.10;8.50;;;;;;;;;;5065569;28;24865;-48
2022/09/25 11:34:13;;;;;;;9.70;9.05;;;;;;;;;;5061972;28;24426;-48
2022/09/25 11:36:57;;;;;;;7.80;7.30;;;;;;;;;;5062803;28;25070;-48
2022/09/25 11:42:32;;;;;;;6.10;5.70;;;;;;;;;;5056575;28;24480;-48
2022/09/25 11:45:13;;;;;;;6.03;5.63;;;;;;;;;;5062330;28;24459;-47
2022/09/25 11:47:44;;;;;;;6.10;5.70;;;;;;;;;;5064235;28;24441;-48
2022/09/25 11:50:16;;;;;;;6.35;5.95;;;;;;;;;;5060988;28;24496;-48
2022/09/25 11:52:41;;;;;;;9.02;8.23;;;;;;;;;;5061316;28;24418;-47
2022/09/25 11:55:25;;;;;;;7.00;6.50;;;;;;;;;;5062948;28;24429;-48
2022/09/25 11:58:06;;;;;;;6.05;5.65;;;;;;;;;;5059303;28;24999;-48
2022/09/25 12:00:39;;;;;;;5.20;4.80;;;;;;;;;;5052647;28;24428;-48
2022/09/25 12:03:05;;;;;;;7.40;6.80;;;;;;;;;;5058647;28;24426;-48
2022/09/25 12:05:38;;;;;;;6.47;6.07;;;;;;;;;;5062679;28;24983;-48
2022/09/25 12:08:22;;;;;;;6.97;6.38;;;;;;;;;;5048885;28;25035;-47
2022/09/25 12:10:51;;;;;;;6.40;6.00;;;;;;;;;;5065720;28;24431;-47
2022/09/25 12:13:25;;;;;;;4.90;4.60;;;;;;;;;;5063917;28;24578;-48
2022/09/25 12:16:01;;;;;;;5.88;5.47;;;;;;;;;;5062639;28;24448;-48
2022/09/25 12:18:26;;;;;;;6.70;6.20;;;;;;;;;;5064296;28;24502;-48
2022/09/25 12:20:56;;;;;;;6.55;6.05;;;;;;;;;;5059590;28;24513;-48
2022/09/25 12:23:31;;;;;;;6.32;5.93;;;;;;;;;;5059808;28;24473;-48
2022/09/25 12:25:57;;;;;;;5.88;5.47;;;;;;;;;;5066812;28;24407;-47
2022/09/25 12:28:35;;;;;;;5.30;4.90;;;;;;;;;;5069175;28;24430;-48
2022/09/25 12:31:13;;;;;;;5.32;4.93;;;;;;;;;;5061832;28;24625;-48
2022/09/25 12:34:03;;;;;;;5.00;4.70;;;;;;;;;;5061703;28;24407;-50
2022/09/25 12:36:49;;;;;;;4.30;4.00;;;;;;;;;;5066109;28;24434;-48
2022/09/25 12:39:24;;;;;;;5.80;5.40;;;;;;;;;;5064928;28;24438;-48
2022/09/25 12:41:59;;;;;;;6.90;6.40;;;;;;;;;;5046408;28;24415;-48
2022/09/25 12:44:38;;;;;;;6.00;5.50;;;;;;;;;;5053582;28;24521;-48
2022/09/25 12:47:06;;;;;;;5.65;5.25;;;;;;;;;;5066698;28;24568;-47
2022/09/25 12:49:39;;;;;;;5.55;5.15;;;;;;;;;;5062891;28;24521;-48
2022/09/25 12:52:13;;;;;;;4.90;4.60;;;;;;;;;;5066140;28;24591;-48
2022/09/25 12:54:46;;;;;;;4.30;4.00;;;;;;;;;;5064468;28;24422;-47
2022/09/25 12:57:14;;;;;;;4.20;3.90;;;;;;;;;;5064131;28;24387;-47
2022/09/25 12:59:43;;;;;;;4.20;3.90;;;;;;;;;;5058656;28;24426;-48
2022/09/25 13:02:08;;;;;;;4.53;4.18;;;;;;;;;;5064144;28;24500;-48
2022/09/25 13:04:41;;;;;;;4.70;4.30;;;;;;;;;;5062621;28;24504;-48
2022/09/25 13:07:22;;;;;;;4.47;4.18;;;;;;;;;;5048791;28;24415;-47
2022/09/25 13:09:47;;;;;;;4.57;4.28;;;;;;;;;;5050165;28;24488;-48
2022/09/25 13:12:17;;;;;;;4.00;3.80;;;;;;;;;;5048665;28;24483;-48
2022/09/25 13:14:51;;;;;;;4.30;4.00;;;;;;;;;;5056813;28;24522;-47
2022/09/25 13:17:16;;;;;;;4.70;4.40;;;;;;;;;;5059441;28;25034;-48
2022/09/25 13:19:41;;;;;;;3.83;3.63;;;;;;;;;;5065784;28;24426;-47
2022/09/25 13:22:09;;;;;;;4.40;4.10;;;;;;;;;;5049272;28;24434;-47
2022/09/25 13:24:57;;;;;;;4.78;4.47;;;;;;;;;;5051181;28;24450;-47
2022/09/25 13:27:24;;;;;;;3.80;3.60;;;;;;;;;;5062013;28;24423;-47
2022/09/25 13:29:54;;;;;;;3.80;3.60;;;;;;;;;;5057921;28;24437;-48
2022/09/25 13:32:22;;;;;;;3.78;3.58;;;;;;;;;;5059055;28;24438;-47
2022/09/25 13:34:50;;;;;;;4.00;3.70;;;;;;;;;;5046539;28;24442;-46
2022/09/25 13:37:15;;;;;;;4.10;3.80;;;;;;;;;;5053839;28;24466;-47
2022/09/25 13:42:36;;;;;;;4.00;3.80;;;;;;;;;;5060368;28;24819;-47
2022/09/25 13:45:07;;;;;;;4.80;4.50;;;;;;;;;;5057231;28;24474;-47
2022/09/25 13:47:41;;;;;;;4.10;3.80;;;;;;;;;;5064989;28;24881;-47
2022/09/25 13:50:17;;;;;;;3.53;3.30;;;;;;;;;;5063168;28;24531;-46
2022/09/25 13:52:45;;;;;;;4.28;3.97;;;;;;;;;;5061771;28;25075;-48
2022/09/25 13:55:17;;;;;;;4.40;4.10;;;;;;;;;;5059556;28;24423;-47
2022/09/25 13:57:57;;;;;;;5.10;4.77;;;;;;;;;;5067163;28;24411;-47
2022/09/25 14:00:26;;;;;;;4.43;4.13;;;;;;;;;;5068768;28;24480;-47
2022/09/25 14:03:01;;;;;;;4.00;3.80;;;;;;;;;;5064070;28;25077;-47
2022/09/25 14:05:34;;;;;;;3.80;3.60;;;;;;;;;;5066911;28;24422;-47
2022/09/25 14:08:02;;;;;;;4.03;3.72;;;;;;;;;;5064132;28;24414;-48
2022/09/25 14:10:27;;;;;;;3.90;3.70;;;;;;;;;;5067736;28;24429;-47
2022/09/25 14:12:53;;;;;;;4.30;4.00;;;;;;;;;;5066986;28;24480;-48
2022/09/25 14:15:32;;;;;;;4.23;3.93;;;;;;;;;;5068509;28;24429;-47
2022/09/25 14:17:58;;;;;;;4.20;3.90;;;;;;;;;;5066322;28;24574;-47
2022/09/25 14:20:29;;;;;;;4.38;4.07;;;;;;;;;;5067111;28;24518;-47
2022/09/25 14:22:56;;;;;;;4.55;4.25;;;;;;;;;;5065636;28;25043;-46
2022/09/25 14:25:31;;;;;;;5.50;5.20;;;;;;;;;;5065660;28;24530;-47
2022/09/25 14:27:57;;;;;;;5.53;5.22;;;;;;;;;;5065892;28;24411;-47
2022/09/25 14:30:27;;;;;;;5.10;4.80;;;;;;;;;;5059830;28;24481;-47
2022/09/25 14:32:53;;;;;;;6.50;6.00;;;;;;;;;;5064298;28;25172;-48
2022/09/25 14:35:24;;;;;;;5.95;5.55;;;;;;;;;;5068139;28;24538;-47
2022/09/25 14:38:05;;;;;;;6.60;6.20;;;;;;;;;;5067497;28;24979;-48
2022/09/25 14:40:34;;;;;;;5.85;5.45;;;;;;;;;;5061596;28;24874;-48
2022/09/25 14:43:17;;;;;;;5.60;5.20;;;;;;;;;;5064483;28;24415;-48
2022/09/25 14:45:58;;;;;;;6.03;5.60;;;;;;;;;;5068283;28;24418;-48
2022/09/25 14:48:33;;;;;;;6.10;5.70;;;;;;;;;;5064940;28;25424;-47
2022/09/25 14:51:01;;;;;;;6.88;6.38;;;;;;;;;;5064721;28;24421;-47
2022/09/25 14:53:31;;;;;;;6.50;6.00;;;;;;;;;;5066840;28;24426;-48
2022/09/25 14:55:57;;;;;;;5.80;5.40;;;;;;;;;;5067500;28;24429;-47
2022/09/25 14:58:26;;;;;;;5.25;4.95;;;;;;;;;;5063214;28;24435;-46
2022/09/25 15:00:52;;;;;;;7.20;6.70;;;;;;;;;;5067632;28;24506;-48
2022/09/25 15:03:19;;;;;;;5.78;5.47;;;;;;;;;;5060765;28;25031;-47